Time;durP1;ratioP1;P1;durP2;ratioP2;P2;SDS_P1;SDS_P2;PMS_P1;PMS_P2;Temp;Humidity;BMP_temperature;BMP_pressure;BME280_temperature;BME280_humidity;BME280_pressure;Samples;Min_cycle;Max_cycle;Signal;HPM_P1;HPM_P2
2022/11/19 00:00:44;;;;;;;5.38;1.02;;;;;;;13.34;65.46;93919.47;4937121;28;20023;-75
2022/11/19 00:03:13;;;;;;;1.33;0.90;;;;;;;13.27;65.71;93917.84;4954410;28;20578;-75
2022/11/19 00:05:40;;;;;;;2.28;0.90;;;;;;;13.32;65.53;93907.38;4937868;28;20026;-75
2022/11/19 00:08:06;;;;;;;1.08;0.70;;;;;;;13.37;64.65;93899.19;4921948;28;20038;-75
2022/11/19 00:10:35;;;;;;;1.02;0.70;;;;;;;13.34;64.29;93896.63;4954335;28;20399;-75
2022/11/19 00:13:02;;;;;;;1.30;0.98;;;;;;;13.26;64.34;93899.78;4937583;28;20031;-75
2022/11/19 00:15:27;;;;;;;2.03;0.80;;;;;;;13.29;64.40;93904.31;4970342;28;20074;-75
2022/11/19 00:17:53;;;;;;;1.75;0.88;;;;;;;13.24;64.63;93918.03;4985460;28;20027;-75
2022/11/19 00:20:18;;;;;;;0.90;0.60;;;;;;;13.25;64.13;93919.59;4986534;28;20033;-75
2022/11/19 00:22:44;;;;;;;0.82;0.60;;;;;;;13.26;63.28;93916.34;4969013;28;20041;-75
2022/11/19 00:25:10;;;;;;;1.08;0.55;;;;;;;13.15;63.68;93923.66;4986178;28;20058;-75
2022/11/19 00:27:35;;;;;;;0.52;0.47;;;;;;;13.18;63.46;93919.94;4969902;28;20022;-76
2022/11/19 00:30:01;;;;;;;0.88;0.50;;;;;;;13.17;64.01;93908.13;4969130;28;20033;-75
2022/11/19 00:32:27;;;;;;;1.05;0.50;;;;;;;13.24;63.69;93916.03;4953980;28;20445;-75
2022/11/19 00:34:52;;;;;;;0.50;0.50;;;;;;;13.13;64.07;93937.16;4936271;28;20033;-75
2022/11/19 00:37:17;;;;;;;0.90;0.50;;;;;;;13.18;63.87;93945.53;4953928;28;20026;-75
2022/11/19 00:39:43;;;;;;;0.73;0.60;;;;;;;13.23;64.06;93952.41;4952279;28;20336;-75
2022/11/19 00:42:08;;;;;;;1.15;0.73;;;;;;;13.16;64.12;93952.78;4971081;28;20030;-74
2022/11/19 00:44:34;;;;;;;2.28;0.70;;;;;;;13.05;64.44;93958.09;4985099;28;20031;-74
2022/11/19 00:46:59;;;;;;;0.80;0.52;;;;;;;13.06;64.23;93954.84;4970058;28;20054;-74
2022/11/19 00:49:25;;;;;;;1.25;0.50;;;;;;;13.00;64.71;93948.50;4953594;28;20034;-74
2022/11/19 00:51:50;;;;;;;0.70;0.40;;;;;;;12.99;64.18;93947.72;4969623;28;20046;-75
2022/11/19 00:54:15;;;;;;;1.13;0.47;;;;;;;13.05;63.60;93949.81;4971085;28;20404;-75
2022/11/19 00:56:41;;;;;;;0.90;0.50;;;;;;;13.08;63.65;93954.41;4951970;28;20050;-74
2022/11/19 00:59:06;;;;;;;0.88;0.40;;;;;;;12.96;63.73;93943.19;4970907;28;20375;-75
2022/11/19 01:01:32;;;;;;;0.50;0.30;;;;;;;12.91;62.83;93941.09;4969593;28;20495;-75
2022/11/19 01:03:57;;;;;;;1.63;0.60;;;;;;;12.86;63.61;93944.50;4952835;28;20590;-75
2022/11/19 01:06:23;;;;;;;3.22;0.50;;;;;;;12.84;62.84;93960.75;4952627;28;20022;-75
2022/11/19 01:08:50;;;;;;;1.15;0.60;;;;;;;12.82;62.72;93954.97;4936313;28;20038;-75
2022/11/19 01:11:20;;;;;;;1.02;0.60;;;;;;;12.83;62.36;93973.03;4937041;28;20030;-75
2022/11/19 01:13:45;;;;;;;0.55;0.40;;;;;;;12.81;61.49;93972.75;4951898;28;20034;-75
2022/11/19 01:16:13;;;;;;;1.95;0.40;;;;;;;12.77;61.65;93967.41;4936922;28;20039;-75
2022/11/19 01:18:39;;;;;;;0.55;0.35;;;;;;;12.77;61.84;93958.38;4952018;28;20023;-76
2022/11/19 01:21:05;;;;;;;0.55;0.40;;;;;;;12.76;61.85;93965.91;4952672;28;20023;-75
2022/11/19 01:23:30;;;;;;;0.95;0.50;;;;;;;12.77;61.91;93972.16;4984101;28;20067;-75
2022/11/19 01:25:56;;;;;;;0.40;0.38;;;;;;;12.84;61.80;93979.31;4970032;28;20547;-75
2022/11/19 01:28:21;;;;;;;0.60;0.60;;;;;;;12.80;61.88;93974.00;4970668;28;20042;-75
2022/11/19 01:30:47;;;;;;;0.65;0.50;;;;;;;12.82;62.02;93985.31;4952333;28;20030;-75
2022/11/19 01:33:12;;;;;;;1.00;0.45;;;;;;;12.81;62.14;93978.25;4969385;28;20027;-75
2022/11/19 01:35:38;;;;;;;1.42;0.38;;;;;;;12.80;62.24;93970.47;4951582;28;20023;-74
2022/11/19 01:38:03;;;;;;;0.95;0.55;;;;;;;12.75;62.77;93961.63;4969802;28;20031;-74
2022/11/19 01:40:29;;;;;;;1.33;0.60;;;;;;;12.76;62.52;93962.38;4968951;28;20023;-75
2022/11/19 01:42:54;;;;;;;1.13;0.63;;;;;;;12.72;63.10;93978.34;4952156;28;20447;-74
2022/11/19 01:45:31;;;;;;;0.70;0.52;;;;;;;12.73;63.12;93975.13;4951676;28;20034;-75
2022/11/19 01:48:08;;;;;;;1.60;0.90;;;;;;;12.85;62.52;93976.09;4993925;28;20479;-75
2022/11/19 01:50:43;;;;;;;1.80;0.90;;;;;;;12.71;62.81;93965.78;4957518;28;20080;-75
2022/11/19 01:53:09;;;;;;;1.85;0.70;;;;;;;12.72;62.50;93964.56;4954300;28;20068;-75
2022/11/19 01:55:35;;;;;;;1.13;0.70;;;;;;;12.75;62.81;93972.66;5004136;28;20452;-75
2022/11/19 01:58:01;;;;;;;1.95;1.05;;;;;;;12.77;62.89;93975.69;4986419;28;20042;-75
2022/11/19 02:00:27;;;;;;;1.67;0.60;;;;;;;12.78;62.38;93965.41;5003839;28;20558;-75
2022/11/19 02:02:53;;;;;;;2.92;0.55;;;;;;;12.82;62.02;93971.50;4987714;28;20032;-75
2022/11/19 02:05:18;;;;;;;1.10;0.70;;;;;;;12.85;62.02;93970.56;4954267;28;20022;-75
2022/11/19 02:07:46;;;;;;;1.92;0.60;;;;;;;12.89;61.70;93976.66;5003785;28;20035;-75
2022/11/19 02:10:11;;;;;;;2.75;0.80;;;;;;;12.84;62.10;93982.06;4954125;28;20030;-75
2022/11/19 02:12:46;;;;;;;3.67;0.70;;;;;;;12.85;61.78;93976.09;4971430;28;20408;-75
2022/11/19 02:15:16;;;;;;;0.88;0.50;;;;;;;12.85;62.34;93976.09;4987467;28;20089;-75
2022/11/19 02:18:09;;;;;;;1.13;0.52;;;;;;;12.84;62.40;93995.84;5003703;28;20109;-75
2022/11/19 02:20:40;;;;;;;2.85;0.80;;;;;;;12.74;62.76;93981.41;4988443;28;20034;-75
2022/11/19 02:23:06;;;;;;;2.92;0.77;;;;;;;12.83;62.39;93980.53;4987256;28;20081;-75
2022/11/19 02:26:08;;;;;;;3.97;1.15;;;;;;;12.80;62.54;93984.25;4988462;28;20452;-75
2022/11/19 02:28:51;;;;;;;4.22;1.30;;;;;;;12.89;62.12;93993.19;4987559;28;20037;-76
2022/11/19 02:31:23;;;;;;;2.47;0.90;;;;;;;12.88;62.31;93996.44;4955420;28;20109;-75
2022/11/19 02:33:51;;;;;;;1.25;0.93;;;;;;;12.86;62.59;94005.19;4955971;28;20030;-75
2022/11/19 02:36:43;;;;;;;1.75;0.80;;;;;;;12.89;62.75;94004.22;4969971;28;20913;-75
2022/11/19 02:39:24;;;;;;;2.03;0.80;;;;;;;13.00;62.01;94014.69;4970840;28;20444;-76
2022/11/19 02:41:54;;;;;;;4.05;1.23;;;;;;;12.92;62.48;94014.31;4985852;28;20023;-75
2022/11/19 02:47:14;;;;;;;2.13;1.10;;;;;;;12.85;62.76;94022.97;5000720;28;20065;-75
2022/11/19 02:49:42;;;;;;;3.85;1.17;;;;;;;12.88;62.54;94021.25;4969491;28;20034;-74
2022/11/19 02:52:07;;;;;;;2.38;1.10;;;;;;;12.90;62.62;94024.28;4986568;28;20401;-75
2022/11/19 02:54:33;;;;;;;2.72;1.65;;;;;;;12.89;62.68;94022.78;5002505;28;20026;-74
2022/11/19 02:56:58;;;;;;;1.30;0.95;;;;;;;12.88;62.43;94033.03;4970262;28;20022;-76
2022/11/19 03:04:54;;;;;;;1.98;1.17;;;;;;;12.84;62.34;94039.97;4959921;28;20185;-75
2022/11/19 03:07:20;;;;;;;2.38;0.85;;;;;;;12.85;62.18;94053.31;4985554;28;20408;-75
2022/11/19 03:09:48;;;;;;;1.92;1.00;;;;;;;12.90;61.85;94065.66;4970341;28;20172;-73
2022/11/19 03:12:19;;;;;;;1.30;0.95;;;;;;;12.90;62.20;94071.19;4970124;28;20030;-74
2022/11/19 03:18:34;;;;;;;3.35;1.70;;;;;;;12.68;63.65;94071.53;4975578;28;20174;-76
2022/11/19 03:21:08;;;;;;;4.47;2.30;;;;;;;12.64;63.91;94085.50;5001746;28;20023;-75
2022/11/19 03:23:38;;;;;;;4.90;3.00;;;;;;;12.59;64.38;94075.09;4986820;28;20044;-75
2022/11/19 03:26:11;;;;;;;5.15;3.17;;;;;;;12.59;64.82;94074.34;4954530;28;20455;-74
2022/11/19 03:28:36;;;;;;;5.45;3.35;;;;;;;12.58;65.00;94076.34;4984696;28;20118;-76
2022/11/19 03:31:02;;;;;;;5.55;3.45;;;;;;;12.51;65.26;94084.22;4970189;28;20117;-74
2022/11/19 03:33:30;;;;;;;8.25;4.05;;;;;;;12.52;65.14;94080.97;4985364;28;20037;-76
2022/11/19 03:35:59;;;;;;;6.60;3.72;;;;;;;12.46;65.28;94091.13;4988012;28;20027;-75
2022/11/19 03:38:30;;;;;;;5.50;3.80;;;;;;;12.45;65.45;94092.38;4986010;28;20058;-75
2022/11/19 03:40:56;;;;;;;6.55;4.10;;;;;;;12.45;65.20;94089.63;4954672;28;20027;-76
2022/11/19 03:43:23;;;;;;;5.05;3.67;;;;;;;12.43;65.38;94081.78;4986641;28;20026;-76
2022/11/19 03:45:48;;;;;;;6.40;3.88;;;;;;;12.37;65.45;94094.69;5001987;28;20117;-75
2022/11/19 03:48:14;;;;;;;8.30;4.60;;;;;;;12.35;65.58;94096.41;4938211;28;20073;-75
2022/11/19 03:50:55;;;;;;;8.93;4.47;;;;;;;12.39;65.52;94097.75;4985405;28;20061;-75
2022/11/19 03:53:20;;;;;;;6.13;4.03;;;;;;;12.44;65.29;94108.16;4985597;28;20030;-74
2022/11/19 03:55:50;;;;;;;8.65;4.38;;;;;;;12.43;65.57;94105.84;4971709;28;20567;-74
2022/11/19 03:58:15;;;;;;;6.38;4.25;;;;;;;12.43;65.10;94109.34;4988716;28;20459;-75
2022/11/19 04:00:41;;;;;;;7.00;3.85;;;;;;;12.40;65.27;94112.31;4989503;28;20018;-76
2022/11/19 04:03:07;;;;;;;7.75;4.43;;;;;;;12.37;65.34;94111.22;4988657;28;20053;-75
2022/11/19 04:05:32;;;;;;;7.18;4.45;;;;;;;12.42;65.32;94107.84;4990790;28;20041;-75
2022/11/19 04:07:57;;;;;;;9.15;3.95;;;;;;;12.33;65.60;94105.16;4990122;28;20022;-75
2022/11/19 04:10:23;;;;;;;6.13;3.83;;;;;;;12.35;65.44;94110.94;4973157;28;20019;-76
2022/11/19 04:12:48;;;;;;;6.25;4.07;;;;;;;12.31;65.72;94121.38;5005412;28;20023;-75
2022/11/19 04:15:14;;;;;;;6.25;4.30;;;;;;;12.27;65.79;94129.03;4972807;28;20029;-75
2022/11/19 04:17:39;;;;;;;5.35;3.72;;;;;;;12.26;65.70;94132.28;4972845;28;20022;-75
2022/11/19 04:20:06;;;;;;;6.18;3.92;;;;;;;12.21;65.75;94131.69;4988836;28;20408;-75
2022/11/19 04:22:32;;;;;;;5.50;3.70;;;;;;;12.22;65.80;94135.97;4990475;28;20027;-77
2022/11/19 04:24:57;;;;;;;6.88;3.83;;;;;;;12.28;65.58;94127.84;4989559;28;20476;-75
2022/11/19 04:27:22;;;;;;;5.65;3.72;;;;;;;12.27;65.52;94137.31;4990615;28;20049;-75
2022/11/19 04:29:48;;;;;;;7.57;4.10;;;;;;;12.25;65.66;94133.50;4989507;28;20046;-75
2022/11/19 04:32:14;;;;;;;6.78;4.13;;;;;;;12.27;65.45;94129.03;4972780;28;20030;-75
2022/11/19 04:34:39;;;;;;;6.18;3.78;;;;;;;12.23;65.64;94142.25;4989648;28;20049;-75
2022/11/19 04:37:04;;;;;;;5.40;3.38;;;;;;;12.24;65.63;94143.78;4972240;28;20023;-74
2022/11/19 04:39:30;;;;;;;4.57;3.35;;;;;;;12.21;65.79;94152.97;4972229;28;20038;-74
2022/11/19 04:41:55;;;;;;;4.47;3.10;;;;;;;12.19;65.98;94160.94;4989705;28;20081;-76
2022/11/19 04:44:21;;;;;;;6.00;4.10;;;;;;;12.20;65.89;94165.97;4990351;28;20082;-74
2022/11/19 04:46:46;;;;;;;5.30;3.83;;;;;;;12.15;66.06;94176.88;4970971;28;20085;-75
2022/11/19 04:49:12;;;;;;;6.75;3.40;;;;;;;12.14;65.94;94184.38;4953376;28;20528;-74
2022/11/19 04:51:37;;;;;;;5.95;3.88;;;;;;;12.21;65.92;94186.81;4968440;28;20085;-75
2022/11/19 04:54:03;;;;;;;5.80;4.72;;;;;;;12.23;65.92;94195.38;4952864;28;20027;-75
2022/11/19 04:56:28;;;;;;;7.40;5.43;;;;;;;12.26;65.78;94195.66;4970225;28;20463;-74
2022/11/19 04:58:54;;;;;;;5.85;4.38;;;;;;;12.27;65.88;94200.69;4984657;28;20034;-74
2022/11/19 05:01:19;;;;;;;5.68;4.70;;;;;;;12.26;65.78;94206.69;4953044;28;20070;-74
2022/11/19 05:03:46;;;;;;;7.15;5.78;;;;;;;12.28;66.09;94210.50;4920183;28;20042;-74
2022/11/19 05:06:11;;;;;;;7.38;6.55;;;;;;;12.20;66.24;94221.06;4937169;28;20027;-75
2022/11/19 05:08:37;;;;;;;10.60;9.10;;;;;;;12.26;65.83;94223.97;4969346;28;20045;-74
2022/11/19 05:11:02;;;;;;;17.05;14.70;;;;;;;12.17;66.13;94218.50;4970100;28;20421;-74
2022/11/19 05:13:28;;;;;;;19.10;16.27;;;;;;;12.23;65.89;94228.44;4969821;28;20033;-76
2022/11/19 05:15:53;;;;;;;19.35;16.00;;;;;;;12.23;65.74;94235.94;4952227;28;20441;-75
2022/11/19 05:18:19;;;;;;;17.70;14.63;;;;;;;12.21;65.84;94241.91;4969984;28;20027;-76
2022/11/19 05:20:44;;;;;;;15.80;13.57;;;;;;;12.20;65.85;94248.63;4968285;28;20023;-75
2022/11/19 05:23:10;;;;;;;20.02;14.32;;;;;;;12.21;65.85;94254.91;4952528;28;20429;-76
2022/11/19 05:25:35;;;;;;;17.58;13.70;;;;;;;12.19;65.86;94252.63;4952233;28;20064;-76
2022/11/19 05:28:01;;;;;;;16.45;12.63;;;;;;;12.17;65.76;94248.81;4969827;28;20031;-75
2022/11/19 05:30:26;;;;;;;13.55;10.85;;;;;;;12.15;66.04;94249.25;4969682;28;20027;-76
2022/11/19 05:32:52;;;;;;;12.80;9.85;;;;;;;12.14;66.04;94244.22;4984327;28;20031;-75
2022/11/19 05:35:17;;;;;;;13.00;9.88;;;;;;;12.07;66.00;94244.56;4951893;28;20607;-76
2022/11/19 05:37:43;;;;;;;12.38;10.18;;;;;;;12.11;65.81;94256.94;4951790;28;20023;-76
2022/11/19 05:40:08;;;;;;;13.18;9.48;;;;;;;12.12;65.57;94274.22;4936112;28;20046;-76
2022/11/19 05:42:34;;;;;;;9.73;6.82;;;;;;;11.97;66.06;94279.59;4969120;28;20030;-76
2022/11/19 05:44:59;;;;;;;9.95;7.03;;;;;;;11.99;66.21;94290.19;4952027;28;20023;-76
2022/11/19 05:47:25;;;;;;;10.90;7.68;;;;;;;11.92;66.46;94305.00;4941183;28;20050;-76
2022/11/19 05:49:50;;;;;;;10.32;7.97;;;;;;;11.77;66.84;94324.13;4987037;28;20031;-76
2022/11/19 05:52:16;;;;;;;10.98;8.38;;;;;;;11.65;67.36;94314.03;4970758;28;20045;-76
2022/11/19 05:54:41;;;;;;;10.30;8.52;;;;;;;11.72;67.30;94323.97;4988501;28;20027;-76
2022/11/19 05:57:06;;;;;;;10.90;9.20;;;;;;;11.72;67.28;94321.22;4988082;28;20022;-76
2022/11/19 05:59:32;;;;;;;9.93;7.45;;;;;;;11.75;67.16;94323.81;4988206;28;20045;-75
2022/11/19 06:01:57;;;;;;;11.68;8.88;;;;;;;11.76;67.12;94314.34;4987389;28;20055;-76
2022/11/19 06:04:23;;;;;;;12.80;9.95;;;;;;;11.73;66.93;94326.25;4987768;28;20507;-75
2022/11/19 06:06:48;;;;;;;10.80;8.90;;;;;;;11.78;67.37;94331.16;4988834;28;20030;-76
2022/11/19 06:09:14;;;;;;;12.15;8.80;;;;;;;11.79;67.14;94334.69;4932214;28;20042;-75
2022/11/19 06:11:51;;;;;;;12.93;9.82;;;;;;;11.78;66.94;94333.91;4987655;28;20027;-75
2022/11/19 06:14:18;;;;;;;12.60;9.48;;;;;;;11.75;67.19;94339.56;4979567;28;20056;-75
2022/11/19 06:16:43;;;;;;;11.48;8.20;;;;;;;11.78;67.39;94339.44;5019160;28;20052;-75
2022/11/19 06:19:09;;;;;;;13.88;9.43;;;;;;;11.84;67.21;94350.63;5016315;28;20025;-76
2022/11/19 06:21:34;;;;;;;13.00;9.77;;;;;;;11.89;66.91;94355.53;5028840;28;20025;-75
2022/11/19 06:24:00;;;;;;;13.00;10.07;;;;;;;11.92;66.87;94362.84;5022205;28;20435;-76
2022/11/19 06:26:26;;;;;;;12.90;9.18;;;;;;;11.96;66.74;94374.50;4994748;28;20026;-75
2022/11/19 06:28:52;;;;;;;10.82;9.63;;;;;;;12.00;66.62;94382.59;4989573;28;20392;-76
2022/11/19 06:31:18;;;;;;;12.10;8.65;;;;;;;11.99;66.87;94381.84;4989683;28;20033;-76
2022/11/19 06:33:43;;;;;;;11.35;8.55;;;;;;;12.04;66.73;94374.94;4989727;28;20040;-75
2022/11/19 06:36:09;;;;;;;10.00;8.52;;;;;;;12.12;66.44;94387.97;5032652;28;20087;-76
2022/11/19 06:38:34;;;;;;;12.02;9.13;;;;;;;12.28;65.81;94397.16;5029015;28;20031;-76
2022/11/19 06:40:59;;;;;;;12.95;9.73;;;;;;;12.36;65.81;94390.84;5029141;28;20021;-79
2022/11/19 06:43:25;;;;;;;13.93;11.25;;;;;;;12.39;65.53;94395.44;4999250;28;20103;-76
2022/11/19 06:45:50;;;;;;;14.95;11.65;;;;;;;12.42;65.45;94397.25;5006443;28;20022;-76
2022/11/19 06:48:16;;;;;;;18.77;12.45;;;;;;;12.49;65.42;94404.44;5024603;28;20091;-76
2022/11/19 06:50:43;;;;;;;15.75;10.50;;;;;;;12.52;65.37;94400.78;5024275;28;20047;-77
2022/11/19 06:53:08;;;;;;;16.88;11.27;;;;;;;12.52;65.20;94413.81;4992905;28;20029;-77
2022/11/19 06:55:33;;;;;;;13.65;9.07;;;;;;;12.60;64.96;94407.50;5026983;28;20056;-76
2022/11/19 06:58:02;;;;;;;13.15;9.13;;;;;;;12.74;64.69;94419.88;5008968;28;20017;-76
2022/11/19 07:00:28;;;;;;;10.50;8.43;;;;;;;12.84;64.36;94421.38;5025400;28;20167;-76
2022/11/19 07:02:53;;;;;;;9.98;7.47;;;;;;;12.96;64.20;94427.94;5009459;28;20072;-76
2022/11/19 07:05:19;;;;;;;10.73;7.95;;;;;;;13.14;63.64;94436.16;5008583;28;20029;-76
2022/11/19 07:07:44;;;;;;;10.73;8.32;;;;;;;13.28;63.38;94432.75;5027227;28;20025;-77
2022/11/19 07:10:09;;;;;;;12.50;8.73;;;;;;;13.48;63.02;94434.22;5026615;28;20032;-77
2022/11/19 07:12:35;;;;;;;10.65;8.15;;;;;;;13.71;62.59;94435.47;5009107;28;20419;-77
2022/11/19 07:15:01;;;;;;;11.45;8.55;;;;;;;13.85;62.26;94434.78;5008928;28;20025;-77
2022/11/19 07:17:26;;;;;;;9.05;6.28;;;;;;;14.18;60.55;94431.16;5008960;28;20029;-75
2022/11/19 07:19:51;;;;;;;8.90;6.22;;;;;;;14.45;60.00;94417.13;5042109;28;20516;-75
2022/11/19 07:22:17;;;;;;;9.27;6.78;;;;;;;14.79;59.18;94428.81;5024775;28;20380;-75
2022/11/19 07:24:42;;;;;;;8.00;6.18;;;;;;;15.06;58.33;94433.28;5025965;28;20420;-76
2022/11/19 07:27:08;;;;;;;7.65;5.07;;;;;;;15.07;58.22;94429.28;5008005;28;20079;-76
2022/11/19 07:29:33;;;;;;;7.25;4.65;;;;;;;15.48;57.26;94430.16;5027435;28;20025;-76
2022/11/19 07:31:59;;;;;;;5.38;4.50;;;;;;;15.49;56.97;94428.97;5012567;28;20030;-75
2022/11/19 07:34:24;;;;;;;6.93;4.95;;;;;;;15.60;56.94;94426.34;5030159;28;20030;-76
2022/11/19 07:36:49;;;;;;;6.57;5.72;;;;;;;15.68;56.44;94420.44;5030445;28;20422;-75
2022/11/19 07:39:15;;;;;;;6.55;5.15;;;;;;;16.23;55.25;94431.50;5012087;28;20426;-77
2022/11/19 07:44:24;;;;;;;5.82;4.65;;;;;;;17.08;52.48;94420.00;5028781;28;20128;-77
2022/11/19 07:46:50;;;;;;;5.07;3.92;;;;;;;17.25;51.95;94425.72;5027560;28;20021;-77
2022/11/19 07:49:15;;;;;;;5.97;4.55;;;;;;;17.10;52.68;94417.53;5029453;28;20144;-77
2022/11/19 07:51:41;;;;;;;6.45;4.80;;;;;;;18.43;49.33;94426.44;5030062;28;20022;-75
2022/11/19 07:54:08;;;;;;;5.10;4.13;;;;;;;19.31;47.24;94435.50;5012273;28;20033;-76
2022/11/19 07:56:33;;;;;;;6.22;4.38;;;;;;;21.61;42.14;94437.44;4995689;28;20444;-74
2022/11/19 07:58:59;;;;;;;4.38;3.65;;;;;;;23.39;38.14;94444.28;5030419;28;20522;-74
2022/11/19 08:01:25;;;;;;;10.18;6.50;;;;;;;24.32;36.47;94454.47;5011769;28;20064;-75
2022/11/19 08:03:51;;;;;;;5.47;3.80;;;;;;;24.27;35.99;94463.00;5030196;28;20030;-74
2022/11/19 08:06:17;;;;;;;7.03;4.13;;;;;;;24.45;35.78;94467.03;5028040;28;20098;-76
2022/11/19 08:08:42;;;;;;;8.00;4.05;;;;;;;26.00;33.13;94464.16;5012453;28;20037;-76
2022/11/19 08:11:08;;;;;;;4.10;3.47;;;;;;;24.43;35.80;94469.59;5045034;28;20041;-76
2022/11/19 08:13:34;;;;;;;4.60;3.40;;;;;;;25.78;33.40;94473.91;4995209;28;20508;-77
2022/11/19 08:16:03;;;;;;;5.93;3.90;;;;;;;26.18;32.71;94465.22;5010922;28;20044;-75
2022/11/19 08:18:29;;;;;;;4.90;3.60;;;;;;;27.87;30.10;94467.56;5027797;28;20029;-76
2022/11/19 08:20:54;;;;;;;5.57;3.42;;;;;;;27.04;31.07;94468.03;5012377;28;20087;-77
2022/11/19 08:23:20;;;;;;;5.80;3.40;;;;;;;29.48;27.73;94473.72;4994709;28;20022;-76
2022/11/19 08:25:45;;;;;;;6.78;4.60;;;;;;;31.14;25.45;94475.06;5011652;28;20025;-76
2022/11/19 08:28:11;;;;;;;4.40;3.28;;;;;;;32.40;23.83;94477.91;5010253;28;20403;-77
2022/11/19 08:30:39;;;;;;;3.75;3.00;;;;;;;33.57;22.36;94476.72;4995254;28;20472;-76
2022/11/19 08:33:05;;;;;;;4.65;3.00;;;;;;;34.52;21.08;94479.88;5029286;28;20403;-77
2022/11/19 08:35:30;;;;;;;6.25;3.72;;;;;;;35.38;20.67;94483.53;5029082;28;20040;-77
2022/11/19 08:37:57;;;;;;;4.13;2.80;;;;;;;36.42;19.16;94475.91;5011866;28;20021;-77
2022/11/19 08:40:22;;;;;;;4.05;2.67;;;;;;;37.33;18.01;94487.69;5028318;28;20030;-77
2022/11/19 08:43:00;;;;;;;2.45;2.25;;;;;;;38.21;17.11;94484.81;5029652;28;20310;-78
2022/11/19 08:45:32;;;;;;;2.75;1.90;;;;;;;38.97;16.24;94493.22;4998207;28;20045;-77
2022/11/19 08:47:59;;;;;;;2.97;2.13;;;;;;;39.52;15.89;94486.66;5028921;28;20052;-77
2022/11/19 08:50:25;;;;;;;3.40;2.47;;;;;;;39.76;15.38;94499.38;5011185;28;20025;-78
2022/11/19 08:53:00;;;;;;;1.90;1.58;;;;;;;39.68;15.25;94493.22;5028972;28;20025;-79
2022/11/19 08:55:26;;;;;;;2.45;1.48;;;;;;;40.91;14.38;94485.34;5027730;28;20040;-78
2022/11/19 08:57:52;;;;;;;3.13;1.60;;;;;;;41.59;13.75;94480.31;5027206;28;20427;-78
2022/11/19 09:00:19;;;;;;;4.68;1.77;;;;;;;42.23;13.23;94495.16;5011560;28;20034;-78
2022/11/19 09:02:45;;;;;;;3.40;1.73;;;;;;;42.71;12.62;94492.66;5010347;28;20029;-78
2022/11/19 09:05:10;;;;;;;2.28;1.40;;;;;;;43.21;12.89;94499.56;5028353;28;20056;-78
2022/11/19 09:07:35;;;;;;;2.15;1.30;;;;;;;43.40;12.27;94506.75;5027339;28;20446;-79
2022/11/19 09:10:01;;;;;;;3.90;1.88;;;;;;;43.58;12.20;94497.97;5009665;28;20036;-78
2022/11/19 09:12:28;;;;;;;3.30;1.80;;;;;;;44.40;11.69;94507.91;5009770;28;20025;-78
2022/11/19 09:14:54;;;;;;;4.38;2.92;;;;;;;44.83;11.31;94508.44;5042540;28;20021;-78
2022/11/19 09:17:19;;;;;;;3.03;2.20;;;;;;;45.07;11.31;94508.44;5010687;28;20021;-78
2022/11/19 09:19:45;;;;;;;2.75;2.00;;;;;;;45.77;10.44;94508.91;5043104;28;20037;-78
2022/11/19 09:22:10;;;;;;;3.83;2.13;;;;;;;45.97;10.38;94512.31;5043744;28;20033;-78
2022/11/19 09:24:35;;;;;;;2.33;1.80;;;;;;;46.44;10.36;94498.88;5028154;28;20412;-78
2022/11/19 09:27:01;;;;;;;1.85;1.40;;;;;;;46.73;9.60;94494.44;5028251;28;20434;-78
2022/11/19 09:29:26;;;;;;;2.15;1.60;;;;;;;46.51;9.81;94486.00;5028279;28;20384;-78
2022/11/19 09:31:52;;;;;;;2.92;1.50;;;;;;;47.11;9.90;94482.91;4994353;28;20089;-78
2022/11/19 09:34:17;;;;;;;2.63;1.83;;;;;;;47.19;9.34;94485.22;5027196;28;20380;-79
2022/11/19 09:36:43;;;;;;;4.25;1.70;;;;;;;47.51;9.22;94479.31;5027581;28;20041;-79
2022/11/19 09:39:09;;;;;;;3.33;1.90;;;;;;;47.75;9.47;94473.19;5010758;28;20037;-79
2022/11/19 09:41:46;;;;;;;3.03;1.70;;;;;;;48.22;9.06;94467.38;5009955;28;20079;-79
2022/11/19 09:44:15;;;;;;;3.45;1.60;;;;;;;47.37;9.42;94458.66;5027107;28;20454;-79
2022/11/19 09:46:51;;;;;;;3.80;2.08;;;;;;;46.76;9.80;94451.63;5027681;28;20466;-79
2022/11/19 09:49:21;;;;;;;3.88;1.90;;;;;;;44.97;10.99;94447.97;4994297;28;20112;-79
2022/11/19 09:51:51;;;;;;;3.65;2.00;;;;;;;43.94;11.63;94421.03;5027254;28;20025;-79
2022/11/19 09:54:17;;;;;;;2.85;1.65;;;;;;;43.23;12.08;94415.78;5009735;28;20174;-78
2022/11/19 09:56:46;;;;;;;2.85;1.80;;;;;;;42.98;12.26;94419.22;5010092;28;20112;-79
2022/11/19 09:59:24;;;;;;;3.80;1.92;;;;;;;43.58;11.62;94423.47;4993610;28;20029;-79
2022/11/19 10:01:50;;;;;;;3.80;2.10;;;;;;;42.82;12.14;94413.63;5027423;28;20196;-79
2022/11/19 10:04:18;;;;;;;4.85;3.00;;;;;;;44.16;11.56;94423.13;5009947;28;20519;-78
2022/11/19 10:07:10;;;;;;;3.58;3.03;;;;;;;44.60;11.15;94420.88;4993264;28;20037;-78
2022/11/19 10:10:06;;;;;;;4.47;3.00;;;;;;;43.60;11.61;94419.94;5003571;28;20061;-79
2022/11/19 10:12:51;;;;;;;5.10;3.20;;;;;;;43.69;11.87;94410.81;5029019;28;20148;-78
2022/11/19 10:15:19;;;;;;;3.90;3.47;;;;;;;43.92;11.76;94402.84;5010008;28;20021;-78
2022/11/19 10:18:39;;;;;;;8.55;4.65;;;;;;;43.83;11.87;94404.78;5027760;28;20033;-78
2022/11/19 10:21:17;;;;;;;5.53;3.85;;;;;;;44.20;11.26;94405.91;4966765;28;20058;-78
2022/11/19 10:23:50;;;;;;;4.38;3.63;;;;;;;42.79;12.39;94412.81;4989863;28;20030;-78
2022/11/19 10:26:24;;;;;;;4.28;3.40;;;;;;;42.93;12.44;94413.31;5006303;28;20045;-80
2022/11/19 10:28:54;;;;;;;4.72;2.50;;;;;;;43.11;12.06;94415.38;5014833;28;20029;-78
2022/11/19 10:31:46;;;;;;;4.10;2.60;;;;;;;41.87;12.71;94408.63;5023137;28;20025;-79
2022/11/19 10:34:18;;;;;;;;;;;;;;;42.23;12.65;94403.53;5032730;28;20041;-78
2022/11/19 10:37:03;;;;;;;4.60;2.10;;;;;;;41.99;12.85;94397.53;5027061;28;20062;-78
2022/11/19 10:39:35;;;;;;;5.15;2.70;;;;;;;40.98;13.55;94388.34;5011222;28;20021;-79
2022/11/19 10:42:19;;;;;;;4.15;2.00;;;;;;;40.53;13.71;94401.53;4993209;28;20038;-79
2022/11/19 10:45:01;;;;;;;5.60;2.88;;;;;;;40.33;13.87;94389.09;5026933;28;20431;-79
2022/11/19 10:47:46;;;;;;;4.78;1.90;;;;;;;40.70;13.62;94382.09;4992961;28;20049;-79
2022/11/19 10:50:24;;;;;;;2.97;1.90;;;;;;;41.34;12.94;94378.34;5009178;28;20060;-79
2022/11/19 10:52:54;;;;;;;4.53;1.85;;;;;;;40.76;13.18;94370.84;5009669;28;20026;-78
2022/11/19 10:55:25;;;;;;;4.50;2.33;;;;;;;39.77;14.22;94367.81;4976568;28;20095;-79
2022/11/19 10:57:54;;;;;;;3.63;2.60;;;;;;;38.35;15.48;94375.81;5025510;28;20111;-79
2022/11/19 11:00:19;;;;;;;5.25;2.72;;;;;;;37.99;15.73;94376.06;5008540;28;20028;-79
2022/11/19 11:02:48;;;;;;;4.53;2.90;;;;;;;37.10;16.84;94368.94;5023552;28;20033;-77
2022/11/19 11:05:15;;;;;;;4.53;3.15;;;;;;;36.52;17.06;94375.56;4992108;28;20523;-78
2022/11/19 11:08:01;;;;;;;6.65;4.13;;;;;;;35.82;18.76;94366.97;4992508;28;20026;-75
2022/11/19 11:10:43;;;;;;;8.35;4.05;;;;;;;36.23;18.18;94366.63;5012688;28;20053;-73
2022/11/19 11:15:58;;;;;;;7.35;4.35;;;;;;;38.10;17.03;94373.75;5031039;28;20092;-69
2022/11/19 11:18:25;;;;;;;6.70;3.85;;;;;;;39.09;15.82;94368.81;4997327;28;20034;-71
2022/11/19 11:20:50;;;;;;;7.40;3.88;;;;;;;39.61;15.57;94362.03;4994767;28;20417;-69
2022/11/19 11:23:18;;;;;;;9.10;4.53;;;;;;;40.54;16.25;94344.69;5030983;28;20029;-69
2022/11/19 11:25:50;;;;;;;7.60;3.95;;;;;;;40.02;15.46;94346.66;5029353;28;20087;-68
2022/11/19 11:28:20;;;;;;;4.32;2.75;;;;;;;38.00;16.88;94336.66;5029177;28;20034;-73
2022/11/19 11:30:57;;;;;;;5.10;3.38;;;;;;;36.06;18.34;94339.91;5030958;28;20064;-70
2022/11/19 11:33:23;;;;;;;5.03;2.85;;;;;;;36.78;17.60;94347.03;5030332;28;20037;-70
2022/11/19 11:35:48;;;;;;;6.05;3.47;;;;;;;37.21;17.66;94344.47;5030148;28;20017;-72
2022/11/19 11:38:14;;;;;;;4.93;2.85;;;;;;;38.03;16.60;94344.00;5028757;28;20433;-70
2022/11/19 11:40:39;;;;;;;6.38;2.55;;;;;;;37.26;17.15;94331.13;5029428;28;20136;-69
2022/11/19 11:43:05;;;;;;;5.10;3.50;;;;;;;36.05;17.84;94324.13;5024352;28;20037;-69
2022/11/19 11:45:34;;;;;;;7.03;3.83;;;;;;;35.47;18.51;94335.50;5028931;28;20026;-71
2022/11/19 11:48:07;;;;;;;5.25;3.05;;;;;;;34.77;19.21;94336.72;5029796;28;20232;-72
2022/11/19 11:50:33;;;;;;;8.23;3.90;;;;;;;33.63;21.50;94336.78;5012314;28;20156;-72
2022/11/19 11:52:58;;;;;;;6.03;3.10;;;;;;;32.42;22.69;94338.72;5012607;28;20056;-71